Portage, Indiana
Current Conditions -  °F | °C
As of 12:55 AM on Sunday 26 Oct 2014 (Local Time) from KGYY Reporting Station
Clear Clear  
Wind Chill: 55°   Ceiling: Unl
Heat Index: 55°   Visibility: 10mi
Dew Point: 29°   Wind: 7mph
Humidity: 36%   Direction: 300°WNW
Pressure: 29.98"   Gusts: NA
Location:  41.6°N, 87.17°W
Report Text: KGYY 260555Z AUTO 30006KT 10SM CLR 13/M02 A2998 RMK AO2 T01301019 10194 20130 402410119
Loading
Personal Weather Stations






























Interactive Weather Map
Tropical Storm Tracking
New forecast layout! Learn more

10-Day Weather Forecast

Advertisements
Track Severe Weather on mobile